Hlavní strana
METAR-TAF:

METAR-TAF

Letiště :

Kokomo Municipal Airport

Kokomo, Indiana, Spojené státy americké

zeměpisná šířka: 40-32N, zeměpisná délka: 086-04W, výška: 253 m

Aktuální stav počasí

Zpráva byla vytvořena před 23 minutami, v 16:41 UTC
Severoseverovýchodní vítr 5 kt
Teplota 2°C
Vlhkost vzduchu 100%
Tlak 1024 hPa
Viditelnost: 4.8 km
Zataženo ve výšce 400 ft
kouřmo

METAR: KOKK 181641Z AUTO 03005KT 3SM BR OVC004 02/02 A3023 RMK AO2 UPE28 P0000 FZRANO

Čas: 12:04 (17:04 UTC)


TAF: chybějící

Stav a předpovědi počasí z více než 4 000 letišť (zprávy METAR a TAF).

Červené a žluté tečky na mapě představují dostupné meteorologické stanice.

Když kurzor umístíte na tečku, zobrazí se název stanice.

Pak kliknutím zobrazíte stav a předpověď počasí.

Chcete-li změnit mapu, kliknutím na zelené tlačítko se znaménkem +mapu přiblížíte, kliknutím na zelené tlačítko se znaménkem – mapu oddálíte a kliknutím na zelené šipky přejdete na sousední mapy.


METAR-TAF: